Time;durP1;ratioP1;P1;durP2;ratioP2;P2;SDS_P1;SDS_P2;PMS_P1;PMS_P2;Temp;Humidity;BMP_temperature;BMP_pressure;BME280_temperature;BME280_humidity;BME280_pressure;Samples;Min_cycle;Max_cycle;Signal;HPM_P1;HPM_P2
2023/12/18 00:01:33;;;;;;;;;;;;;;;;;;5087971;28;20000;-64
2023/12/18 00:04:03;;;;;;;;;;;;;;;;;;5076041;28;19954;-64
2023/12/18 00:06:28;;;;;;;;;;;;;;;;;;5087850;28;19916;-64
2023/12/18 00:08:54;;;;;;;;;;;;;;;;;;5085575;28;20017;-64
2023/12/18 00:11:20;;;;;;;;;;;;;;;;;;5075308;28;20360;-64
2023/12/18 00:13:46;;;;;;;;;;;;;;;;;;5095129;28;19955;-64
2023/12/18 00:16:12;;;;;;;;;;;;;;;;;;5086796;28;20244;-64
2023/12/18 00:18:38;;;;;;;;;;;;;;;;;;5074456;28;19916;-64
2023/12/18 00:21:04;;;;;;;;;;;;;;;;;;5082643;28;19939;-65
2023/12/18 00:23:30;;;;;;;;;;;;;;;;;;5094417;28;19967;-64
2023/12/18 00:25:56;;;;;;;;;;;;;;;;;;5091057;28;19912;-65
2023/12/18 00:28:22;;;;;;;;;;;;;;;;;;5084270;28;20011;-64
2023/12/18 00:30:48;;;;;;;;;;;;;;;;;;5084713;28;19958;-64
2023/12/18 00:33:13;;;;;;;;;;;;;;;;;;5079041;28;19968;-64
2023/12/18 00:35:40;;;;;;;;;;;;;;;;;;5095744;28;19979;-64
2023/12/18 00:38:06;;;;;;;;;;;;;;;;;;5095574;28;20410;-64
2023/12/18 00:40:31;;;;;;;;;;;;;;;;;;5087490;28;19950;-64
2023/12/18 00:42:57;;;;;;;;;;;;;;;;;;5088263;28;19913;-64
2023/12/18 00:45:23;;;;;;;;;;;;;;;;;;5092109;28;20455;-67
2023/12/18 00:47:49;;;;;;;;;;;;;;;;;;5079812;28;20434;-67
2023/12/18 00:50:15;;;;;;;;;;;;;;;;;;5074571;28;20012;-67
2023/12/18 00:52:41;;;;;;;;;;;;;;;;;;5094218;28;19947;-67
2023/12/18 00:55:07;;;;;;;;;;;;;;;;;;5094535;28;19955;-69
2023/12/18 00:57:33;;;;;;;;;;;;;;;;;;5093908;28;19908;-69
2023/12/18 00:59:59;;;;;;;;;;;;;;;;;;5094460;28;19957;-69
2023/12/18 01:02:25;;;;;;;;;;;;;;;;;;5078761;28;20364;-68
2023/12/18 01:04:50;;;;;;;;;;;;;;;;;;5085243;28;19959;-67
2023/12/18 01:07:16;;;;;;;;;;;;;;;;;;5095013;28;20289;-68
2023/12/18 01:09:42;;;;;;;;;;;;;;;;;;5091268;28;19912;-70
2023/12/18 01:12:08;;;;;;;;;;;;;;;;;;5094920;28;19965;-69
2023/12/18 01:14:34;;;;;;;;;;;;;;;;;;5088163;28;20015;-70
2023/12/18 01:17:00;;;;;;;;;;;;;;;;;;5094220;28;20374;-70
2023/12/18 01:19:26;;;;;;;;;;;;;;;;;;5094302;28;20368;-69
2023/12/18 01:21:52;;;;;;;;;;;;;;;;;;5092891;28;20007;-69
2023/12/18 01:24:18;;;;;;;;;;;;;;;;;;5092745;28;20010;-68
2023/12/18 01:26:44;;;;;;;;;;;;;;;;;;5079758;28;19935;-69
2023/12/18 01:29:10;;;;;;;;;;;;;;;;;;5090375;28;21802;-69
2023/12/18 01:31:35;;;;;;;;;;;;;;;;;;5074310;28;19923;-70
2023/12/18 01:34:01;;;;;;;;;;;;;;;;;;5074290;28;20395;-68
2023/12/18 01:36:28;;;;;;;;;;;;;;;;;;5074226;28;19966;-69
2023/12/18 01:38:54;;;;;;;;;;;;;;;;;;5078239;28;19916;-69
2023/12/18 01:41:20;;;;;;;;;;;;;;;;;;5085698;28;20380;-70
2023/12/18 01:43:46;;;;;;;;;;;;;;;;;;5092712;28;19912;-70
2023/12/18 01:46:12;;;;;;;;;;;;;;;;;;5093617;28;19955;-70
2023/12/18 01:48:37;;;;;;;;;;;;;;;;;;5093644;28;19908;-69
2023/12/18 01:51:03;;;;;;;;;;;;;;;;;;5093666;28;19920;-70
2023/12/18 01:53:29;;;;;;;;;;;;;;;;;;5094131;28;20308;-69
2023/12/18 01:55:55;;;;;;;;;;;;;;;;;;5086552;28;19919;-64
2023/12/18 01:58:21;;;;;;;;;;;;;;;;;;5080296;28;19913;-64
2023/12/18 02:00:47;;;;;;;;;;;;;;;;;;5074609;28;19919;-64
2023/12/18 02:03:15;;;;;;;;;;;;;;;;;;5073726;28;19999;-64
2023/12/18 02:05:41;;;;;;;;;;;;;;;;;;5073745;28;20402;-69
2023/12/18 02:08:07;;;;;;;;;;;;;;;;;;5077892;28;19963;-69
2023/12/18 02:10:33;;;;;;;;;;;;;;;;;;5092554;28;20457;-69
2023/12/18 02:12:59;;;;;;;;;;;;;;;;;;5089657;28;19956;-69
2023/12/18 02:15:24;;;;;;;;;;;;;;;;;;5092505;28;19912;-69
2023/12/18 02:17:50;;;;;;;;;;;;;;;;;;5089590;28;19966;-70
2023/12/18 02:20:16;;;;;;;;;;;;;;;;;;5091832;28;19911;-69
2023/12/18 02:22:42;;;;;;;;;;;;;;;;;;5090977;28;19979;-69
2023/12/18 02:25:08;;;;;;;;;;;;;;;;;;5092844;28;20360;-68
2023/12/18 02:27:34;;;;;;;;;;;;;;;;;;5080729;28;19935;-70
2023/12/18 02:30:00;;;;;;;;;;;;;;;;;;5072959;28;19912;-69
2023/12/18 02:32:26;;;;;;;;;;;;;;;;;;5076884;28;19970;-70
2023/12/18 02:34:52;;;;;;;;;;;;;;;;;;5091784;28;19914;-69
2023/12/18 02:37:18;;;;;;;;;;;;;;;;;;5092975;28;19912;-69
2023/12/18 02:39:44;;;;;;;;;;;;;;;;;;5089730;28;21657;-68
2023/12/18 02:42:10;;;;;;;;;;;;;;;;;;5081223;28;20053;-69
2023/12/18 02:44:36;;;;;;;;;;;;;;;;;;5093190;28;20348;-69
2023/12/18 02:47:02;;;;;;;;;;;;;;;;;;5075666;28;19920;-69
2023/12/18 02:49:28;;;;;;;;;;;;;;;;;;5078755;28;20346;-68
2023/12/18 02:51:54;;;;;;;;;;;;;;;;;;5077381;28;19961;-70
2023/12/18 02:54:20;;;;;;;;;;;;;;;;;;5079816;28;20269;-69
2023/12/18 02:56:45;;;;;;;;;;;;;;;;;;5090521;28;19989;-69
2023/12/18 02:59:12;;;;;;;;;;;;;;;;;;5093000;28;19908;-69
2023/12/18 03:01:38;;;;;;;;;;;;;;;;;;5093017;28;19921;-69
2023/12/18 03:04:03;;;;;;;;;;;;;;;;;;5092751;28;19916;-69
2023/12/18 03:06:29;;;;;;;;;;;;;;;;;;5092939;28;19912;-70
2023/12/18 03:08:55;;;;;;;;;;;;;;;;;;5092309;28;19918;-68
2023/12/18 03:11:21;;;;;;;;;;;;;;;;;;5086871;28;19947;-68
2023/12/18 03:13:47;;;;;;;;;;;;;;;;;;5090605;28;19987;-69
2023/12/18 03:16:13;;;;;;;;;;;;;;;;;;5081600;28;19919;-67
2023/12/18 03:18:39;;;;;;;;;;;;;;;;;;5089853;28;19923;-68
2023/12/18 03:21:05;;;;;;;;;;;;;;;;;;5084567;28;19955;-67
2023/12/18 03:23:31;;;;;;;;;;;;;;;;;;5091291;28;19912;-67
2023/12/18 03:25:57;;;;;;;;;;;;;;;;;;5091338;28;19942;-66
2023/12/18 03:28:23;;;;;;;;;;;;;;;;;;5092807;28;20368;-68
2023/12/18 03:30:48;;;;;;;;;;;;;;;;;;5089459;28;20015;-67
2023/12/18 03:33:14;;;;;;;;;;;;;;;;;;5096044;28;20326;-67
2023/12/18 03:35:40;;;;;;;;;;;;;;;;;;5095584;28;19912;-67
2023/12/18 03:38:06;;;;;;;;;;;;;;;;;;5096659;28;19908;-67
2023/12/18 03:40:32;;;;;;;;;;;;;;;;;;5095098;28;19923;-66
2023/12/18 03:42:58;;;;;;;;;;;;;;;;;;5093119;28;19912;-67
2023/12/18 03:45:24;;;;;;;;;;;;;;;;;;5092969;28;20167;-68
2023/12/18 03:47:50;;;;;;;;;;;;;;;;;;5084130;28;20329;-67
2023/12/18 03:50:16;;;;;;;;;;;;;;;;;;5096198;28;20027;-68
2023/12/18 03:52:41;;;;;;;;;;;;;;;;;;5096390;28;20264;-67
2023/12/18 03:55:07;;;;;;;;;;;;;;;;;;5096402;28;19914;-67
2023/12/18 03:57:33;;;;;;;;;;;;;;;;;;5095882;28;19912;-67
2023/12/18 03:59:59;;;;;;;;;;;;;;;;;;5094889;28;19919;-67
2023/12/18 04:02:25;;;;;;;;;;;;;;;;;;5096450;28;20003;-67
2023/12/18 04:04:52;;;;;;;;;;;;;;;;;;5096469;28;20351;-67
2023/12/18 04:07:18;;;;;;;;;;;;;;;;;;5095739;28;20372;-67
2023/12/18 04:09:44;;;;;;;;;;;;;;;;;;5095437;28;20016;-67
2023/12/18 04:12:10;;;;;;;;;;;;;;;;;;5084578;28;20295;-67
2023/12/18 04:14:36;;;;;;;;;;;;;;;;;;5092283;28;19927;-67
2023/12/18 04:17:02;;;;;;;;;;;;;;;;;;5078303;28;19916;-67
2023/12/18 04:19:28;;;;;;;;;;;;;;;;;;5083608;28;19963;-67
2023/12/18 04:21:53;;;;;;;;;;;;;;;;;;5088214;28;19981;-67
2023/12/18 04:24:19;;;;;;;;;;;;;;;;;;5095810;28;19915;-67
2023/12/18 04:26:45;;;;;;;;;;;;;;;;;;5093770;28;20431;-67
2023/12/18 04:29:11;;;;;;;;;;;;;;;;;;5095733;28;19961;-67
2023/12/18 04:31:37;;;;;;;;;;;;;;;;;;5094138;28;20275;-67
2023/12/18 04:34:03;;;;;;;;;;;;;;;;;;5084572;28;19951;-67
2023/12/18 04:36:29;;;;;;;;;;;;;;;;;;5095686;28;19922;-67
2023/12/18 04:38:55;;;;;;;;;;;;;;;;;;5095525;28;19951;-67
2023/12/18 04:41:21;;;;;;;;;;;;;;;;;;5093397;28;20001;-67
2023/12/18 04:43:47;;;;;;;;;;;;;;;;;;5088312;28;20011;-67
2023/12/18 04:46:13;;;;;;;;;;;;;;;;;;5095616;28;19948;-67
2023/12/18 04:48:38;;;;;;;;;;;;;;;;;;5082251;28;19962;-67
2023/12/18 04:51:04;;;;;;;;;;;;;;;;;;5074739;28;19963;-67
2023/12/18 04:53:30;;;;;;;;;;;;;;;;;;5075045;28;19968;-67
2023/12/18 04:55:56;;;;;;;;;;;;;;;;;;5075099;28;19909;-67
2023/12/18 04:58:22;;;;;;;;;;;;;;;;;;5091227;28;20388;-67
2023/12/18 05:00:48;;;;;;;;;;;;;;;;;;5093587;28;19912;-68
2023/12/18 05:03:14;;;;;;;;;;;;;;;;;;5087911;28;20544;-67
2023/12/18 05:05:40;;;;;;;;;;;;;;;;;;5078523;28;19912;-67
2023/12/18 05:08:06;;;;;;;;;;;;;;;;;;5090816;28;20407;-67
2023/12/18 05:10:31;;;;;;;;;;;;;;;;;;5092528;28;19923;-67
2023/12/18 05:12:57;;;;;;;;;;;;;;;;;;5087629;28;20260;-67
2023/12/18 05:15:23;;;;;;;;;;;;;;;;;;5085713;28;19959;-67
2023/12/18 05:17:49;;;;;;;;;;;;;;;;;;5078537;28;19919;-67
2023/12/18 05:20:15;;;;;;;;;;;;;;;;;;5081555;28;19912;-67
2023/12/18 05:22:41;;;;;;;;;;;;;;;;;;5084134;28;19960;-66
2023/12/18 05:25:07;;;;;;;;;;;;;;;;;;5081655;28;20003;-67
2023/12/18 05:27:33;;;;;;;;;;;;;;;;;;5090320;28;19920;-67
2023/12/18 05:29:59;;;;;;;;;;;;;;;;;;5092862;28;19978;-67
2023/12/18 05:32:25;;;;;;;;;;;;;;;;;;5084111;28;19942;-67
2023/12/18 05:34:50;;;;;;;;;;;;;;;;;;5089485;28;19912;-69
2023/12/18 05:37:16;;;;;;;;;;;;;;;;;;5089496;28;19912;-64
2023/12/18 05:39:42;;;;;;;;;;;;;;;;;;5086649;28;19915;-63
2023/12/18 05:42:08;;;;;;;;;;;;;;;;;;5089474;28;19947;-66
2023/12/18 05:44:34;;;;;;;;;;;;;;;;;;5090488;28;20003;-63
2023/12/18 05:47:00;;;;;;;;;;;;;;;;;;5089470;28;19969;-64
2023/12/18 05:49:27;;;;;;;;;;;;;;;;;;5093327;28;20324;-63
2023/12/18 05:51:53;;;;;;;;;;;;;;;;;;5081456;28;19946;-63
2023/12/18 05:54:19;;;;;;;;;;;;;;;;;;5083928;28;19912;-63
2023/12/18 05:56:45;;;;;;;;;;;;;;;;;;5080242;28;19919;-63
2023/12/18 05:59:11;;;;;;;;;;;;;;;;;;5090442;28;20376;-63
2023/12/18 06:01:37;;;;;;;;;;;;;;;;;;5086838;28;19957;-64
2023/12/18 06:04:03;;;;;;;;;;;;;;;;;;5082624;28;19999;-63
2023/12/18 06:06:29;;;;;;;;;;;;;;;;;;5083972;28;20396;-63
2023/12/18 06:08:55;;;;;;;;;;;;;;;;;;5082186;28;19920;-63
2023/12/18 06:11:21;;;;;;;;;;;;;;;;;;5081640;28;19959;-63
2023/12/18 06:13:46;;;;;;;;;;;;;;;;;;5084662;28;19948;-64
2023/12/18 06:16:12;;;;;;;;;;;;;;;;;;5084812;28;20316;-63
2023/12/18 06:18:38;;;;;;;;;;;;;;;;;;5080212;28;19925;-63
2023/12/18 06:21:04;;;;;;;;;;;;;;;;;;5079735;28;19924;-63
2023/12/18 06:23:30;;;;;;;;;;;;;;;;;;5081602;28;20005;-63
2023/12/18 06:25:56;;;;;;;;;;;;;;;;;;5076119;28;19912;-64
2023/12/18 06:28:22;;;;;;;;;;;;;;;;;;5092334;28;19920;-63
2023/12/18 06:30:48;;;;;;;;;;;;;;;;;;5080547;28;20306;-63
2023/12/18 06:33:14;;;;;;;;;;;;;;;;;;5088109;28;19981;-63
2023/12/18 06:35:40;;;;;;;;;;;;;;;;;;5079467;28;19943;-63
2023/12/18 06:38:06;;;;;;;;;;;;;;;;;;5092387;28;19951;-63
2023/12/18 06:40:32;;;;;;;;;;;;;;;;;;5084242;28;19912;-63
2023/12/18 06:42:58;;;;;;;;;;;;;;;;;;5086287;28;20029;-63
2023/12/18 06:45:24;;;;;;;;;;;;;;;;;;5076215;28;20011;-64
2023/12/18 06:47:49;;;;;;;;;;;;;;;;;;5074653;28;19908;-64
2023/12/18 06:50:15;;;;;;;;;;;;;;;;;;5085135;28;19959;-63
2023/12/18 06:52:41;;;;;;;;;;;;;;;;;;5093079;28;19940;-63
2023/12/18 06:55:07;;;;;;;;;;;;;;;;;;5077463;28;19920;-63
2023/12/18 06:57:33;;;;;;;;;;;;;;;;;;5079882;28;19951;-64
2023/12/18 06:59:59;;;;;;;;;;;;;;;;;;5086927;28;19919;-63
2023/12/18 07:02:26;;;;;;;;;;;;;;;;;;5081172;28;19957;-63
2023/12/18 07:04:52;;;;;;;;;;;;;;;;;;5090467;28;19965;-64
2023/12/18 07:07:18;;;;;;;;;;;;;;;;;;5085362;28;20368;-63
2023/12/18 07:09:44;;;;;;;;;;;;;;;;;;5082198;28;19920;-63
2023/12/18 07:12:10;;;;;;;;;;;;;;;;;;5079884;28;19908;-65
2023/12/18 07:14:36;;;;;;;;;;;;;;;;;;5088251;28;20460;-64
2023/12/18 07:17:02;;;;;;;;;;;;;;;;;;5084383;28;19915;-64
2023/12/18 07:19:27;;;;;;;;;;;;;;;;;;5091476;28;19916;-63
2023/12/18 07:21:53;;;;;;;;;;;;;;;;;;5079538;28;19913;-64
2023/12/18 07:24:19;;;;;;;;;;;;;;;;;;5075804;28;20001;-63
2023/12/18 07:26:45;;;;;;;;;;;;;;;;;;5080330;28;20490;-63
2023/12/18 07:29:13;;;;;;;;;;;;;;;;;;5074258;28;21532;-64
2023/12/18 07:31:39;;;;;;;;;;;;;;;;;;5090087;28;20033;-63
2023/12/18 07:34:04;;;;;;;;;;;;;;;;;;5091797;28;20041;-63
2023/12/18 07:36:35;;;;;;;;;;;;;;;;;;5091804;28;19937;-63
2023/12/18 07:39:01;;;;;;;;;;;;;;;;;;5079028;28;19934;-63
2023/12/18 07:41:30;;;;;;;;;;;;;;;;;;5086976;28;19955;-63
2023/12/18 07:43:56;;;;;;;;;;;;;;;;;;5085113;28;19920;-63
2023/12/18 07:46:23;;;;;;;;;;;;;;;;;;5075797;28;20009;-63
2023/12/18 07:48:49;;;;;;;;;;;;;;;;;;5078002;28;19995;-63
2023/12/18 07:51:15;;;;;;;;;;;;;;;;;;5091254;28;20019;-64
2023/12/18 07:53:41;;;;;;;;;;;;;;;;;;5091498;28;19918;-63
2023/12/18 07:56:07;;;;;;;;;;;;;;;;;;5089846;28;19912;-63
2023/12/18 07:58:32;;;;;;;;;;;;;;;;;;5080503;28;20391;-63
2023/12/18 08:00:58;;;;;;;;;;;;;;;;;;5081968;28;19916;-63
2023/12/18 08:03:25;;;;;;;;;;;;;;;;;;5084707;28;20341;-63
2023/12/18 08:05:50;;;;;;;;;;;;;;;;;;5076095;28;20336;-63
2023/12/18 08:08:16;;;;;;;;;;;;;;;;;;5090703;28;19948;-63
2023/12/18 08:10:43;;;;;;;;;;;;;;;;;;5080094;28;19916;-63
2023/12/18 08:13:08;;;;;;;;;;;;;;;;;;5077953;28;20380;-64
2023/12/18 08:15:34;;;;;;;;;;;;;;;;;;5091004;28;20003;-63
2023/12/18 08:18:00;;;;;;;;;;;;;;;;;;5078160;28;20076;-63
2023/12/18 08:20:26;;;;;;;;;;;;;;;;;;5092178;28;19919;-64
2023/12/18 08:22:52;;;;;;;;;;;;;;;;;;5094203;28;19908;-63
2023/12/18 08:25:18;;;;;;;;;;;;;;;;;;5081538;28;20341;-63
2023/12/18 08:27:44;;;;;;;;;;;;;;;;;;5093689;28;19926;-63
2023/12/18 08:30:10;;;;;;;;;;;;;;;;;;5082219;28;19959;-63
2023/12/18 08:32:36;;;;;;;;;;;;;;;;;;5092128;28;19918;-64
2023/12/18 08:35:02;;;;;;;;;;;;;;;;;;5087712;28;19917;-63
2023/12/18 08:37:28;;;;;;;;;;;;;;;;;;5094877;28;20439;-64
2023/12/18 08:39:54;;;;;;;;;;;;;;;;;;5094533;28;20006;-63
2023/12/18 08:42:20;;;;;;;;;;;;;;;;;;5084601;28;19912;-64
2023/12/18 08:44:46;;;;;;;;;;;;;;;;;;5092669;28;19943;-63
2023/12/18 08:47:12;;;;;;;;;;;;;;;;;;5090215;28;19912;-63
2023/12/18 08:49:38;;;;;;;;;;;;;;;;;;5085157;28;19978;-63
2023/12/18 08:52:03;;;;;;;;;;;;;;;;;;5088328;28;19916;-64
2023/12/18 08:54:29;;;;;;;;;;;;;;;;;;5094585;28;20360;-63
2023/12/18 08:56:55;;;;;;;;;;;;;;;;;;5091015;28;19913;-64
2023/12/18 08:59:21;;;;;;;;;;;;;;;;;;5093352;28;20280;-63
2023/12/18 09:01:47;;;;;;;;;;;;;;;;;;5092809;28;19959;-64
2023/12/18 09:04:13;;;;;;;;;;;;;;;;;;5093023;28;19913;-64
2023/12/18 09:06:39;;;;;;;;;;;;;;;;;;5094444;28;19908;-67
2023/12/18 09:09:05;;;;;;;;;;;;;;;;;;5094325;28;19996;-68
2023/12/18 09:11:33;;;;;;;;;;;;;;;;;;5092784;28;20384;-67
2023/12/18 09:14:00;;;;;;;;;;;;;;;;;;5094248;28;19908;-67
2023/12/18 09:16:26;;;;;;;;;;;;;;;;;;5093359;28;20288;-67
2023/12/18 09:18:52;;;;;;;;;;;;;;;;;;5093425;28;19958;-68
2023/12/18 09:21:17;;;;;;;;;;;;;;;;;;5091074;28;19912;-68
2023/12/18 09:23:45;;;;;;;;;;;;;;;;;;5091285;28;20283;-67
2023/12/18 09:26:11;;;;;;;;;;;;;;;;;;5093372;28;20416;-68
2023/12/18 09:28:37;;;;;;;;;;;;;;;;;;5093996;28;19916;-67
2023/12/18 09:31:05;;;;;;;;;;;;;;;;;;5091522;28;19946;-67
2023/12/18 09:33:31;;;;;;;;;;;;;;;;;;5090727;28;20280;-68
2023/12/18 09:35:57;;;;;;;;;;;;;;;;;;5089447;28;20292;-67
2023/12/18 09:38:23;;;;;;;;;;;;;;;;;;5093633;28;19912;-68
2023/12/18 09:40:49;;;;;;;;;;;;;;;;;;5093240;28;19915;-68
2023/12/18 09:43:15;;;;;;;;;;;;;;;;;;5093619;28;19944;-67
2023/12/18 09:45:41;;;;;;;;;;;;;;;;;;5086654;28;20038;-67
2023/12/18 09:48:08;;;;;;;;;;;;;;;;;;5081562;28;19912;-68
2023/12/18 09:50:34;;;;;;;;;;;;;;;;;;5086361;28;20072;-67
2023/12/18 09:53:00;;;;;;;;;;;;;;;;;;5073129;28;20035;-68
2023/12/18 09:55:26;;;;;;;;;;;;;;;;;;5073751;28;19918;-68
2023/12/18 09:57:52;;;;;;;;;;;;;;;;;;5093373;28;20257;-68
2023/12/18 10:00:19;;;;;;;;;;;;;;;;;;5079552;28;19919;-68
2023/12/18 10:02:45;;;;;;;;;;;;;;;;;;5091489;28;19912;-69
2023/12/18 10:05:11;;;;;;;;;;;;;;;;;;5093430;28;19958;-68
2023/12/18 10:07:37;;;;;;;;;;;;;;;;;;5091016;28;19960;-68
2023/12/18 10:10:03;;;;;;;;;;;;;;;;;;5078123;28;20696;-67
2023/12/18 10:12:29;;;;;;;;;;;;;;;;;;5079037;28;19976;-68
2023/12/18 10:14:55;;;;;;;;;;;;;;;;;;5088444;28;19988;-65
2023/12/18 10:17:21;;;;;;;;;;;;;;;;;;5090818;28;19922;-66
2023/12/18 10:19:47;;;;;;;;;;;;;;;;;;5091110;28;19920;-66
2023/12/18 10:22:13;;;;;;;;;;;;;;;;;;5093009;28;19954;-67
2023/12/18 10:24:39;;;;;;;;;;;;;;;;;;5092437;28;20473;-66
2023/12/18 10:27:05;;;;;;;;;;;;;;;;;;5092695;28;20069;-66
2023/12/18 10:29:31;;;;;;;;;;;;;;;;;;5089848;28;19916;-66
2023/12/18 10:31:56;;;;;;;;;;;;;;;;;;5081939;28;19951;-66
2023/12/18 10:34:22;;;;;;;;;;;;;;;;;;5081806;28;20339;-67
2023/12/18 10:36:48;;;;;;;;;;;;;;;;;;5086602;28;19918;-66
2023/12/18 10:39:15;;;;;;;;;;;;;;;;;;5090698;28;19926;-66
2023/12/18 10:41:41;;;;;;;;;;;;;;;;;;5091935;28;19919;-66
2023/12/18 10:44:07;;;;;;;;;;;;;;;;;;5092427;28;19912;-67
2023/12/18 10:46:33;;;;;;;;;;;;;;;;;;5082126;28;19970;-66
2023/12/18 10:48:59;;;;;;;;;;;;;;;;;;5087991;28;19919;-66
2023/12/18 10:51:25;;;;;;;;;;;;;;;;;;5082132;28;19920;-66
2023/12/18 10:53:51;;;;;;;;;;;;;;;;;;5091682;28;19923;-66
2023/12/18 10:56:17;;;;;;;;;;;;;;;;;;5082209;28;20331;-66
2023/12/18 10:58:42;;;;;;;;;;;;;;;;;;5090984;28;19918;-66
2023/12/18 11:01:09;;;;;;;;;;;;;;;;;;5090182;28;19913;-66
2023/12/18 11:03:36;;;;;;;;;;;;;;;;;;5089896;28;19983;-66
2023/12/18 11:06:02;;;;;;;;;;;;;;;;;;5090904;28;20284;-66
2023/12/18 11:08:28;;;;;;;;;;;;;;;;;;5084949;28;19923;-66
2023/12/18 11:10:54;;;;;;;;;;;;;;;;;;5078390;28;19916;-67
2023/12/18 11:13:20;;;;;;;;;;;;;;;;;;5091746;28;20004;-66
2023/12/18 11:15:46;;;;;;;;;;;;;;;;;;5091483;28;19913;-67
2023/12/18 11:18:12;;;;;;;;;;;;;;;;;;5091969;28;19908;-66
2023/12/18 11:20:38;;;;;;;;;;;;;;;;;;5087366;28;19974;-67
2023/12/18 11:23:05;;;;;;;;;;;;;;;;;;5087156;28;20064;-66
2023/12/18 11:25:31;;;;;;;;;;;;;;;;;;5084841;28;19920;-66
2023/12/18 11:27:56;;;;;;;;;;;;;;;;;;5085956;28;19928;-66
2023/12/18 11:30:22;;;;;;;;;;;;;;;;;;5081706;28;20024;-66
2023/12/18 11:32:48;;;;;;;;;;;;;;;;;;5089458;28;19939;-66
2023/12/18 11:35:14;;;;;;;;;;;;;;;;;;5091731;28;20256;-66
2023/12/18 11:37:41;;;;;;;;;;;;;;;;;;5084882;28;20388;-66
2023/12/18 11:40:07;;;;;;;;;;;;;;;;;;5091684;28;20006;-67
2023/12/18 11:42:33;;;;;;;;;;;;;;;;;;5091825;28;19999;-66
2023/12/18 11:44:59;;;;;;;;;;;;;;;;;;5085922;28;19920;-66
2023/12/18 11:47:25;;;;;;;;;;;;;;;;;;5089995;28;19962;-67
2023/12/18 11:49:50;;;;;;;;;;;;;;;;;;5083327;28;20003;-66
2023/12/18 11:52:17;;;;;;;;;;;;;;;;;;5073748;28;19938;-66
2023/12/18 11:54:43;;;;;;;;;;;;;;;;;;5094093;28;19908;-66
2023/12/18 11:57:09;;;;;;;;;;;;;;;;;;5093512;28;19912;-66
2023/12/18 11:59:35;;;;;;;;;;;;;;;;;;5076019;28;19944;-66
2023/12/18 12:02:01;;;;;;;;;;;;;;;;;;5079319;28;19931;-66
2023/12/18 12:04:27;;;;;;;;;;;;;;;;;;5091382;28;19908;-66
2023/12/18 12:06:53;;;;;;;;;;;;;;;;;;5095483;28;19912;-66
2023/12/18 12:09:19;;;;;;;;;;;;;;;;;;5093374;28;20007;-66
2023/12/18 12:11:44;;;;;;;;;;;;;;;;;;5090589;28;20363;-66
2023/12/18 12:14:10;;;;;;;;;;;;;;;;;;5087929;28;20356;-66
2023/12/18 12:16:36;;;;;;;;;;;;;;;;;;5087315;28;19996;-66
2023/12/18 12:19:02;;;;;;;;;;;;;;;;;;5092493;28;19908;-66
2023/12/18 12:21:28;;;;;;;;;;;;;;;;;;5086083;28;19920;-66
2023/12/18 12:23:54;;;;;;;;;;;;;;;;;;5094123;28;19912;-65
2023/12/18 12:26:20;;;;;;;;;;;;;;;;;;5090956;28;19916;-66
2023/12/18 12:28:47;;;;;;;;;;;;;;;;;;5093016;28;20011;-67
2023/12/18 12:31:13;;;;;;;;;;;;;;;;;;5092072;28;19916;-66
2023/12/18 12:33:39;;;;;;;;;;;;;;;;;;5093970;28;19916;-66
2023/12/18 12:36:05;;;;;;;;;;;;;;;;;;5088657;28;20004;-62
2023/12/18 12:38:31;;;;;;;;;;;;;;;;;;5088398;28;19912;-62
2023/12/18 12:40:57;;;;;;;;;;;;;;;;;;5080238;28;20008;-62
2023/12/18 12:43:23;;;;;;;;;;;;;;;;;;5080391;28;19916;-62
2023/12/18 12:45:49;;;;;;;;;;;;;;;;;;5081233;28;19951;-62
2023/12/18 12:48:15;;;;;;;;;;;;;;;;;;5082832;28;19951;-62
2023/12/18 12:50:41;;;;;;;;;;;;;;;;;;5075203;28;20376;-62
2023/12/18 12:53:09;;;;;;;;;;;;;;;;;;5088016;28;20000;-62
2023/12/18 12:55:35;;;;;;;;;;;;;;;;;;5077381;28;19913;-62
2023/12/18 12:58:01;;;;;;;;;;;;;;;;;;5083196;28;20286;-62
2023/12/18 13:00:27;;;;;;;;;;;;;;;;;;5093870;28;20003;-62
2023/12/18 13:02:53;;;;;;;;;;;;;;;;;;5081436;28;20003;-62
2023/12/18 13:05:19;;;;;;;;;;;;;;;;;;5086564;28;19961;-64
2023/12/18 13:07:46;;;;;;;;;;;;;;;;;;5091773;28;19952;-62
2023/12/18 13:10:13;;;;;;;;;;;;;;;;;;5080169;28;19920;-62
2023/12/18 13:12:39;;;;;;;;;;;;;;;;;;5089314;28;20026;-62
2023/12/18 13:15:05;;;;;;;;;;;;;;;;;;5094070;28;20356;-63
2023/12/18 13:17:31;;;;;;;;;;;;;;;;;;5079764;28;19923;-63
2023/12/18 13:19:57;;;;;;;;;;;;;;;;;;5088231;28;20392;-62
2023/12/18 13:22:22;;;;;;;;;;;;;;;;;;5092688;28;20011;-62
2023/12/18 13:24:48;;;;;;;;;;;;;;;;;;5088364;28;20237;-62
2023/12/18 13:27:14;;;;;;;;;;;;;;;;;;5089123;28;19920;-62
2023/12/18 13:29:41;;;;;;;;;;;;;;;;;;5093408;28;19935;-62
2023/12/18 13:32:07;;;;;;;;;;;;;;;;;;5093104;28;20384;-63
2023/12/18 13:34:33;;;;;;;;;;;;;;;;;;5092408;28;19977;-62
2023/12/18 13:36:59;;;;;;;;;;;;;;;;;;5087442;28;19912;-62
2023/12/18 13:39:25;;;;;;;;;;;;;;;;;;5091265;28;19912;-62
2023/12/18 13:41:59;;;;;;;;;;;;;;;;;;5073896;28;19928;-63
2023/12/18 13:44:25;;;;;;;;;;;;;;;;;;5092434;28;19978;-62
2023/12/18 13:46:51;;;;;;;;;;;;;;;;;;5090063;28;19952;-63
2023/12/18 13:49:17;;;;;;;;;;;;;;;;;;5086390;28;20032;-63
2023/12/18 13:51:43;;;;;;;;;;;;;;;;;;5091494;28;19927;-63
2023/12/18 13:54:09;;;;;;;;;;;;;;;;;;5092694;28;19912;-63
2023/12/18 13:56:36;;;;;;;;;;;;;;;;;;5093387;28;19920;-63
2023/12/18 13:59:02;;;;;;;;;;;;;;;;;;5087112;28;19923;-63
2023/12/18 14:01:27;;;;;;;;;;;;;;;;;;5091717;28;19912;-63
2023/12/18 14:03:53;;;;;;;;;;;;;;;;;;5080849;28;20619;-63
2023/12/18 14:06:19;;;;;;;;;;;;;;;;;;5084742;28;20395;-63
2023/12/18 14:08:45;;;;;;;;;;;;;;;;;;5092442;28;19951;-63
2023/12/18 14:11:11;;;;;;;;;;;;;;;;;;5083886;28;19955;-63
2023/12/18 14:13:37;;;;;;;;;;;;;;;;;;5080181;28;19999;-63
2023/12/18 14:16:03;;;;;;;;;;;;;;;;;;5091233;28;20344;-63
2023/12/18 14:18:29;;;;;;;;;;;;;;;;;;5086305;28;19916;-64
2023/12/18 14:20:55;;;;;;;;;;;;;;;;;;5080784;28;19999;-63
2023/12/18 14:23:21;;;;;;;;;;;;;;;;;;5081014;28;19912;-63
2023/12/18 14:25:46;;;;;;;;;;;;;;;;;;5092881;28;19918;-63
2023/12/18 14:28:12;;;;;;;;;;;;;;;;;;5092835;28;19920;-63
2023/12/18 14:30:38;;;;;;;;;;;;;;;;;;5092265;28;20019;-63
2023/12/18 14:33:04;;;;;;;;;;;;;;;;;;5091261;28;19972;-63
2023/12/18 14:35:30;;;;;;;;;;;;;;;;;;5087583;28;19912;-64
2023/12/18 14:37:56;;;;;;;;;;;;;;;;;;5086115;28;19948;-63
2023/12/18 14:40:22;;;;;;;;;;;;;;;;;;5080442;28;19955;-63
2023/12/18 14:42:48;;;;;;;;;;;;;;;;;;5079041;28;19991;-63
2023/12/18 14:45:14;;;;;;;;;;;;;;;;;;5073345;28;19908;-63
2023/12/18 14:47:40;;;;;;;;;;;;;;;;;;5079227;28;19923;-63
2023/12/18 14:50:06;;;;;;;;;;;;;;;;;;5073447;28;20304;-63
2023/12/18 14:52:32;;;;;;;;;;;;;;;;;;5081228;28;19999;-63
2023/12/18 14:54:59;;;;;;;;;;;;;;;;;;5083928;28;19918;-63
2023/12/18 14:57:25;;;;;;;;;;;;;;;;;;5086992;28;19927;-67
2023/12/18 14:59:51;;;;;;;;;;;;;;;;;;5081925;28;19959;-67
2023/12/18 15:02:18;;;;;;;;;;;;;;;;;;5080068;28;20936;-67
2023/12/18 15:04:44;;;;;;;;;;;;;;;;;;5079074;28;19923;-67
2023/12/18 15:07:10;;;;;;;;;;;;;;;;;;5084670;28;20614;-67
2023/12/18 15:09:36;;;;;;;;;;;;;;;;;;5083989;28;20042;-65
2023/12/18 15:12:02;;;;;;;;;;;;;;;;;;5089787;28;20387;-67
2023/12/18 15:14:27;;;;;;;;;;;;;;;;;;5087979;28;20007;-67
2023/12/18 15:16:53;;;;;;;;;;;;;;;;;;5091763;28;19923;-66
2023/12/18 15:19:19;;;;;;;;;;;;;;;;;;5079308;28;19959;-67
2023/12/18 15:21:45;;;;;;;;;;;;;;;;;;5084576;28;20011;-67
2023/12/18 15:24:12;;;;;;;;;;;;;;;;;;5079459;28;20033;-67
2023/12/18 15:26:38;;;;;;;;;;;;;;;;;;5079113;28;19974;-67
2023/12/18 15:29:04;;;;;;;;;;;;;;;;;;5078188;28;19989;-67
2023/12/18 15:31:30;;;;;;;;;;;;;;;;;;5086560;28;20364;-65
2023/12/18 15:33:56;;;;;;;;;;;;;;;;;;5079171;28;19919;-67
2023/12/18 15:36:22;;;;;;;;;;;;;;;;;;5076862;28;19947;-67
2023/12/18 15:38:49;;;;;;;;;;;;;;;;;;5083765;28;19916;-66
2023/12/18 15:41:16;;;;;;;;;;;;;;;;;;5085410;28;19920;-67
2023/12/18 15:43:41;;;;;;;;;;;;;;;;;;5082624;28;19918;-67
2023/12/18 15:46:07;;;;;;;;;;;;;;;;;;5083356;28;20007;-67
2023/12/18 15:48:33;;;;;;;;;;;;;;;;;;5079670;28;19923;-67
2023/12/18 15:50:59;;;;;;;;;;;;;;;;;;5083213;28;19971;-66
2023/12/18 15:53:27;;;;;;;;;;;;;;;;;;5075778;28;20415;-68
2023/12/18 15:55:53;;;;;;;;;;;;;;;;;;5079139;28;20026;-68
2023/12/18 15:58:19;;;;;;;;;;;;;;;;;;5080059;28;19977;-66
2023/12/18 16:00:45;;;;;;;;;;;;;;;;;;5084250;28;20038;-67
2023/12/18 16:03:11;;;;;;;;;;;;;;;;;;5081668;28;19912;-65
2023/12/18 16:05:37;;;;;;;;;;;;;;;;;;5083030;28;19922;-64
2023/12/18 16:08:03;;;;;;;;;;;;;;;;;;5082641;28;19951;-64
2023/12/18 16:10:29;;;;;;;;;;;;;;;;;;5088456;28;20427;-64
2023/12/18 16:12:54;;;;;;;;;;;;;;;;;;5086871;28;19985;-64
2023/12/18 16:15:20;;;;;;;;;;;;;;;;;;5079788;28;19954;-64
2023/12/18 16:17:47;;;;;;;;;;;;;;;;;;5086708;28;20010;-64
2023/12/18 16:20:13;;;;;;;;;;;;;;;;;;5083583;28;19912;-64
2023/12/18 16:22:38;;;;;;;;;;;;;;;;;;5088561;28;20290;-64
2023/12/18 16:25:05;;;;;;;;;;;;;;;;;;5090058;28;19916;-63
2023/12/18 16:27:31;;;;;;;;;;;;;;;;;;5084781;28;19920;-64
2023/12/18 16:29:57;;;;;;;;;;;;;;;;;;5087938;28;19969;-64
2023/12/18 16:32:23;;;;;;;;;;;;;;;;;;5086525;28;19999;-64
2023/12/18 16:34:49;;;;;;;;;;;;;;;;;;5090624;28;19918;-63
2023/12/18 16:37:17;;;;;;;;;;;;;;;;;;5081507;28;19951;-63